Time;durP1;ratioP1;P1;durP2;ratioP2;P2;SDS_P1;SDS_P2;PMS_P1;PMS_P2;Temp;Humidity;BMP_temperature;BMP_pressure;BME280_temperature;BME280_humidity;BME280_pressure;Samples;Min_cycle;Max_cycle;Signal;HPM_P1;HPM_P2
2022/05/01 00:01:05;;;;;;;;;8.50;7.50;;;;;11.69;47.41;101825.09;5057019;28;45290;-58
2022/05/01 00:03:34;;;;;;;;;12.50;12.00;;;;;11.63;47.03;101809.38;5056783;27;45817;-59
2022/05/01 00:06:07;;;;;;;;;12.00;8.75;;;;;11.63;48.05;101827.16;5056006;28;45507;-59
2022/05/01 00:08:34;;;;;;;;;13.00;11.25;;;;;11.62;47.76;101823.63;5057271;28;46298;-60
2022/05/01 00:11:00;;;;;;;;;11.50;9.25;;;;;11.56;48.03;101829.19;5072522;27;45626;-59
2022/05/01 00:13:26;;;;;;;;;12.00;11.25;;;;;11.56;48.49;101821.19;5054774;28;45404;-61
2022/05/01 00:15:52;;;;;;;;;10.50;10.50;;;;;11.56;47.91;101825.66;5056632;27;45572;-58
2022/05/01 00:18:18;;;;;;;;;12.25;12.25;;;;;11.55;48.21;101822.13;5056150;28;46082;-63
2022/05/01 00:20:44;;;;;;;;;12.00;9.00;;;;;11.58;48.11;101827.31;5056152;28;45523;-54
2022/05/01 00:23:10;;;;;;;;;11.00;8.00;;;;;11.50;48.25;101818.78;5056673;27;45429;-57
2022/05/01 00:25:37;;;;;;;;;11.50;11.50;;;;;11.43;48.07;101817.28;5056841;28;45424;-59
2022/05/01 00:28:03;;;;;;;;;18.00;15.75;;;;;11.30;48.93;101810.72;5056665;28;45324;-59
2022/05/01 00:30:29;;;;;;;;;11.50;9.25;;;;;11.25;48.82;101820.69;5056016;27;45345;-53
2022/05/01 00:38:24;;;;;;;;;12.75;8.50;;;;;11.29;49.10;101811.66;5056057;28;45660;-58
2022/05/01 00:40:50;;;;;;;;;12.50;11.50;;;;;11.24;48.41;101803.84;5055912;28;45338;-54
2022/05/01 00:43:16;;;;;;;;;9.25;9.25;;;;;11.32;48.77;101816.84;5056054;28;45327;-60
2022/05/01 00:45:41;;;;;;;;;13.00;11.75;;;;;11.29;48.73;101812.50;5056262;28;45414;-59
2022/05/01 00:48:07;;;;;;;;;11.75;11.75;;;;;11.29;48.98;101819.63;5054632;28;47269;-64
2022/05/01 00:50:33;;;;;;;;;12.50;10.00;;;;;11.28;49.43;101807.25;5055883;27;45464;-53
2022/05/01 00:53:00;;;;;;;;;8.75;8.75;;;;;11.19;49.15;101800.47;5056132;28;45410;-55
2022/05/01 00:55:26;;;;;;;;;9.50;9.50;;;;;11.07;49.82;101796.53;5055396;28;45435;-57
2022/05/01 00:57:53;;;;;;;;;12.00;11.50;;;;;11.08;49.82;101803.59;5055506;27;45948;-57
2022/05/01 01:00:19;;;;;;;;;16.25;16.25;;;;;11.08;49.21;101800.94;5055078;28;45951;-57
2022/05/01 01:02:47;;;;;;;;;11.00;11.00;;;;;11.08;49.18;101811.59;5071578;27;45320;-59
2022/05/01 01:05:13;;;;;;;;;12.50;11.00;;;;;11.08;49.82;101800.06;5056168;27;45341;-61
2022/05/01 01:07:39;;;;;;;;;17.25;12.75;;;;;11.02;49.57;101814.47;5054342;28;48164;-55
2022/05/01 01:10:06;;;;;;;;;11.75;9.75;;;;;11.02;50.04;101806.47;5055806;28;45342;-59
2022/05/01 01:15:15;;;;;;;;;14.75;12.25;;;;;10.97;50.58;101800.47;5055828;28;45359;-61
2022/05/01 01:17:42;;;;;;;;;12.00;10.75;;;;;10.91;50.40;101793.56;5055324;28;46484;-61
2022/05/01 01:20:17;;;;;;;;;13.50;12.00;;;;;10.90;50.41;101805.16;5055679;28;45564;-56
2022/05/01 01:22:44;;;;;;;;;12.00;11.50;;;;;10.83;50.27;101800.13;5055544;28;45274;-59
2022/05/01 01:25:11;;;;;;;;;15.25;12.00;;;;;10.89;50.70;101807.88;5071988;27;45877;-58
2022/05/01 01:27:41;;;;;;;;;13.00;11.75;;;;;10.88;50.65;101808.81;5055740;28;46468;-59
2022/05/01 01:32:54;;;;;;;;;14.75;14.50;;;;;10.82;50.73;101798.41;5055648;28;45405;-58
2022/05/01 01:35:21;;;;;;;;;12.25;12.25;;;;;10.83;51.08;101801.00;5055759;28;45227;-55
2022/05/01 01:37:49;;;;;;;;;15.00;12.50;;;;;10.80;50.34;101802.88;5071071;27;45509;-65
2022/05/01 01:40:20;;;;;;;;;20.75;16.00;;;;;10.79;51.29;101798.50;5054041;28;45362;-57
2022/05/01 01:42:48;;;;;;;;;14.00;8.00;;;;;10.68;52.10;101798.91;5055688;27;45815;-59
2022/05/01 01:45:15;;;;;;;;;16.75;11.25;;;;;10.61;51.45;101795.59;5071958;27;45679;-60
2022/05/01 01:47:40;;;;;;;;;16.25;13.50;;;;;10.64;51.54;101805.25;5057420;28;45441;-60
2022/05/01 01:50:06;;;;;;;;;13.25;13.25;;;;;10.61;51.04;101792.94;5057816;27;45403;-57
2022/05/01 01:52:33;;;;;;;;;17.25;16.00;;;;;10.59;52.23;101797.47;5059725;28;45264;-60
2022/05/01 01:55:00;;;;;;;;;16.25;13.25;;;;;10.55;52.17;101795.84;5059531;28;45547;-57
2022/05/01 01:57:25;;;;;;;;;15.00;12.75;;;;;10.45;51.68;101788.25;5057237;28;47147;-54
2022/05/01 01:59:51;;;;;;;;;12.00;12.00;;;;;10.47;51.96;101794.38;5058537;28;45625;-57
2022/05/01 02:02:16;;;;;;;;;16.00;13.50;;;;;10.40;53.07;101796.38;5058856;28;45331;-54
2022/05/01 02:04:42;;;;;;;;;16.75;15.00;;;;;10.26;53.25;101782.72;5057662;28;45506;-56
2022/05/01 02:07:07;;;;;;;;;13.00;12.00;;;;;10.28;53.49;101788.84;5058667;28;46132;-55
2022/05/01 02:09:37;;;;;;;;;18.25;15.50;;;;;10.19;54.14;101787.38;5057934;28;45342;-56
2022/05/01 02:12:08;;;;;;;;;14.25;11.00;;;;;10.24;53.03;101781.91;5058507;27;45230;-56
2022/05/01 02:14:34;;;;;;;;;15.00;13.25;;;;;10.20;53.05;101774.94;5057676;28;45521;-59
2022/05/01 02:16:59;;;;;;;;;19.75;14.75;;;;;10.20;53.15;101769.63;5058710;27;45965;-58
2022/05/01 02:19:24;;;;;;;;;17.50;14.75;;;;;10.24;52.68;101773.94;5058243;28;45456;-54
2022/05/01 02:21:51;;;;;;;;;18.50;16.00;;;;;10.25;53.31;101778.31;5058771;28;45403;-55
2022/05/01 02:24:16;;;;;;;;;11.50;11.50;;;;;10.27;52.98;101787.97;5057575;28;45564;-54
2022/05/01 02:26:42;;;;;;;;;15.50;15.50;;;;;10.28;52.74;101789.72;5058408;28;45667;-54
2022/05/01 02:29:10;;;;;;;;;23.75;16.25;;;;;10.29;53.21;101782.63;5058721;28;45172;-58
2022/05/01 02:31:40;;;;;;;;;18.50;15.75;;;;;10.26;53.15;101775.59;5056963;28;45316;-60
2022/05/01 02:34:05;;;;;;;;;18.25;16.50;;;;;10.25;53.13;101783.63;5056924;28;45458;-57
2022/05/01 02:36:31;;;;;;;;;20.50;16.00;;;;;10.25;53.16;101783.63;5058121;28;46493;-59
2022/05/01 02:38:56;;;;;;;;;12.25;11.75;;;;;10.26;52.96;101774.75;5058151;28;45332;-56
2022/05/01 02:41:22;;;;;;;;;23.25;16.50;;;;;10.23;52.80;101767.75;5073742;27;45345;-59
2022/05/01 02:43:47;;;;;;;;;12.75;12.75;;;;;10.22;52.84;101762.50;5058492;28;45322;-55
2022/05/01 02:46:14;;;;;;;;;14.50;11.75;;;;;10.18;54.02;101769.69;5058602;28;46475;-62
2022/05/01 02:48:39;;;;;;;;;19.50;16.25;;;;;10.18;53.53;101774.13;5058290;27;45326;-60
2022/05/01 02:51:05;;;;;;;;;21.00;17.25;;;;;10.19;53.07;101771.41;5058113;28;45173;-58
2022/05/01 02:53:32;;;;;;;;;17.25;17.25;;;;;10.13;53.41;101766.31;5058374;28;45660;-58
2022/05/01 02:56:00;;;;;;;;;26.75;18.25;;;;;10.01;54.05;101764.94;5057569;27;45411;-59
2022/05/01 02:58:27;;;;;;;;;16.25;15.50;;;;;10.06;53.50;101754.16;5057532;27;45551;-58
2022/05/01 03:00:53;;;;;;;;;15.50;14.50;;;;;10.11;53.75;101760.16;5057719;28;45456;-59
2022/05/01 03:03:18;;;;;;;;;13.00;11.50;;;;;10.03;54.06;101744.50;5057454;28;45351;-55
2022/05/01 03:05:44;;;;;;;;;16.50;15.50;;;;;10.03;53.73;101748.97;5057869;28;45430;-59
2022/05/01 03:08:12;;;;;;;;;19.75;18.25;;;;;9.98;54.51;101746.44;5058021;28;45227;-56
2022/05/01 03:10:38;;;;;;;;;22.50;14.00;;;;;9.97;53.75;101738.53;5057739;28;45390;-61
2022/05/01 03:13:03;;;;;;;;;15.75;14.50;;;;;10.00;54.24;101744.59;5057632;28;45403;-62
2022/05/01 03:15:29;;;;;;;;;20.00;16.00;;;;;10.03;53.69;101755.16;5057425;28;45405;-57
2022/05/01 03:23:22;;;;;;;;;14.25;11.50;;;;;9.93;53.95;101737.78;5057485;28;45400;-57
2022/05/01 03:25:48;;;;;;;;;13.50;12.50;;;;;9.96;53.62;101737.66;5057009;28;45441;-54
2022/05/01 03:28:13;;;;;;;;;16.00;15.75;;;;;9.96;54.18;101742.97;5057571;28;45432;-59
2022/05/01 03:30:39;;;;;;;;;18.50;16.75;;;;;9.95;54.45;101741.25;5057253;28;45320;-60
2022/05/01 03:33:07;;;;;;;;;14.75;14.75;;;;;9.93;54.72;101735.13;5057791;28;45309;-56
2022/05/01 03:35:35;;;;;;;;;17.75;17.75;;;;;9.95;53.86;101745.69;5057600;27;46091;-58
2022/05/01 03:38:02;;;;;;;;;20.25;14.75;;;;;9.90;54.67;101729.94;5056756;28;45239;-57
2022/05/01 03:40:27;;;;;;;;;18.50;18.50;;;;;9.95;53.65;101746.56;5057010;28;45381;-57
2022/05/01 03:42:54;;;;;;;;;19.75;18.25;;;;;9.86;54.73;101722.97;5057269;28;45474;-53
2022/05/01 03:45:19;;;;;;;;;14.75;12.25;;;;;9.82;54.92;101729.31;5056978;28;46191;-56
2022/05/01 03:47:46;;;;;;;;;17.75;12.75;;;;;9.75;55.16;101733.09;5055906;28;45495;-57
2022/05/01 03:50:11;;;;;;;;;23.25;19.50;;;;;9.75;54.65;101736.59;5072714;27;45324;-55
2022/05/01 03:52:37;;;;;;;;;19.50;17.50;;;;;9.81;55.12;101746.19;5057112;28;45176;-61
2022/05/01 03:55:03;;;;;;;;;17.00;16.00;;;;;9.71;54.42;101723.50;5055275;28;48003;-59
2022/05/01 03:57:29;;;;;;;;;18.00;16.25;;;;;9.64;55.55;101720.19;5056933;28;45482;-58
2022/05/01 03:59:54;;;;;;;;;21.75;21.25;;;;;9.52;56.45;101735.69;5055765;28;45223;-57
2022/05/01 04:02:20;;;;;;;;;21.75;18.50;;;;;9.33;57.35;101720.34;5057358;28;45299;-64
2022/05/01 04:04:47;;;;;;;;;22.75;21.25;;;;;9.35;57.32;101733.56;5057563;28;45541;-59
2022/05/01 04:07:13;;;;;;;;;18.25;14.50;;;;;9.19;57.95;101721.72;5056940;28;45470;-61
2022/05/01 04:09:38;;;;;;;;;22.25;18.00;;;;;9.13;58.09;101739.59;5056484;28;45314;-60
2022/05/01 04:12:05;;;;;;;;;21.75;15.75;;;;;9.15;57.20;101731.56;5057040;28;45598;-54
2022/05/01 04:14:32;;;;;;;;;15.75;15.75;;;;;9.06;57.66;101715.94;5055334;28;45426;-59
2022/05/01 04:16:58;;;;;;;;;19.50;18.25;;;;;9.12;57.60;101724.59;5056552;28;45301;-55
2022/05/01 04:19:24;;;;;;;;;23.25;21.25;;;;;9.17;57.45;101727.06;5051230;28;45469;-55
2022/05/01 04:21:49;;;;;;;;;21.75;18.50;;;;;9.27;56.75;101728.53;5072223;27;45529;-56
2022/05/01 04:24:15;;;;;;;;;16.50;14.25;;;;;9.29;56.50;101729.34;5055854;27;47029;-53
2022/05/01 04:26:40;;;;;;;;;19.75;16.25;;;;;9.34;57.34;101729.16;5055431;28;45237;-55
2022/05/01 04:31:49;;;;;;;;;14.50;13.50;;;;;9.22;57.08;101726.91;5056550;28;45268;-57
2022/05/01 04:34:15;;;;;;;;;26.75;21.25;;;;;9.19;57.28;101735.84;5055118;28;46857;-51
2022/05/01 04:36:41;;;;;;;;;24.25;19.25;;;;;9.13;58.04;101728.97;5056425;28;45276;-56
2022/05/01 04:39:06;;;;;;;;;19.50;19.50;;;;;9.06;58.26;101732.72;5056528;27;45488;-63
2022/05/01 04:41:32;;;;;;;;;16.75;13.50;;;;;9.08;58.29;101732.66;5055238;28;45563;-58
2022/05/01 04:43:57;;;;;;;;;17.00;15.25;;;;;9.08;56.83;101722.06;5055908;28;45473;-62
2022/05/01 04:46:22;;;;;;;;;22.25;18.50;;;;;9.19;57.31;101732.31;5054474;27;45410;-60
2022/05/01 04:48:48;;;;;;;;;19.00;19.00;;;;;9.18;57.02;101726.16;5056788;28;45448;-61
2022/05/01 04:51:14;;;;;;;;;23.25;21.50;;;;;9.23;56.99;101736.59;5056652;28;45877;-61
2022/05/01 04:53:39;;;;;;;;;28.75;20.25;;;;;9.23;56.91;101740.13;5056215;28;45418;-59
2022/05/01 04:58:49;;;;;;;;;31.25;23.50;;;;;9.22;56.75;101743.72;5056482;28;45380;-61
2022/05/01 05:01:15;;;;;;;;;19.50;18.75;;;;;9.17;57.56;101735.03;5046219;28;45465;-56
2022/05/01 05:03:40;;;;;;;;;27.75;22.50;;;;;9.07;57.97;101739.75;5035659;28;45437;-56
2022/05/01 05:06:06;;;;;;;;;20.00;19.25;;;;;9.06;57.65;101743.34;5034389;28;45279;-56
2022/05/01 05:11:16;;;;;;;;;22.00;22.00;;;;;9.04;58.10;101750.47;5056521;28;45244;-59
2022/05/01 05:13:42;;;;;;;;;23.00;20.50;;;;;8.98;58.23;101744.47;5054238;28;45247;-59
2022/05/01 05:16:12;;;;;;;;;22.00;20.00;;;;;8.93;58.95;101741.09;5055833;28;45648;-61
2022/05/01 05:18:41;;;;;;;;;20.25;18.50;;;;;8.89;59.28;101763.34;5055689;28;45404;-62
2022/05/01 05:21:07;;;;;;;;;25.00;21.50;;;;;8.86;58.75;101759.88;5057041;28;45360;-57
2022/05/01 05:23:33;;;;;;;;;24.75;23.00;;;;;8.93;58.29;101760.56;5073821;27;45284;-61
2022/05/01 05:26:01;;;;;;;;;18.75;17.25;;;;;9.03;57.85;101763.78;5056931;28;45967;-60
2022/05/01 05:28:27;;;;;;;;;22.50;20.00;;;;;9.14;58.40;101761.69;5058471;28;45310;-61
2022/05/01 05:30:53;;;;;;;;;21.25;19.50;;;;;9.23;57.77;101750.75;5058542;27;45362;-55
2022/05/01 05:33:19;;;;;;;;;18.00;18.00;;;;;9.28;57.17;101754.16;5058189;28;45928;-56
2022/05/01 05:35:45;;;;;;;;;24.50;20.00;;;;;9.35;57.32;101760.97;5057948;28;45503;-59
2022/05/01 05:38:10;;;;;;;;;25.25;19.50;;;;;9.31;57.14;101753.16;5073750;27;45330;-58
2022/05/01 05:40:36;;;;;;;;;19.75;16.25;;;;;9.34;57.88;101761.03;5058414;28;45505;-58
2022/05/01 05:43:01;;;;;;;;;19.25;19.25;;;;;9.33;57.46;101762.81;5058080;27;45378;-60
2022/05/01 05:45:27;;;;;;;;;20.75;15.75;;;;;9.33;58.56;101761.94;5058058;28;45330;-60
2022/05/01 05:47:53;;;;;;;;;25.00;20.50;;;;;9.30;57.41;101768.22;5058483;28;45784;-55
2022/05/01 05:50:19;;;;;;;;;31.75;24.00;;;;;9.37;56.73;101755.63;5058579;27;45215;-57
2022/05/01 05:52:44;;;;;;;;;23.50;22.25;;;;;9.54;56.94;101763.91;5057803;28;45364;-61
2022/05/01 05:55:09;;;;;;;;;25.75;23.00;;;;;9.58;56.25;101756.72;5057815;28;45323;-56
2022/05/01 05:57:35;;;;;;;;;18.75;17.75;;;;;9.60;56.27;101757.53;5057933;28;45223;-58
2022/05/01 06:00:01;;;;;;;;;23.50;20.50;;;;;9.66;56.87;101760.00;5058014;28;45211;-57
2022/05/01 06:02:26;;;;;;;;;28.50;20.00;;;;;9.75;56.79;101762.31;5057766;28;47068;-57
2022/05/01 06:04:52;;;;;;;;;23.00;19.75;;;;;9.74;55.71;101752.59;5057898;28;45370;-56
2022/05/01 06:07:17;;;;;;;;;29.75;22.00;;;;;9.71;56.43;101739.44;5057615;28;45350;-53
2022/05/01 06:09:42;;;;;;;;;23.50;20.50;;;;;9.81;57.25;101759.47;5058091;28;45558;-54
2022/05/01 06:12:09;;;;;;;;;23.75;22.50;;;;;9.80;57.26;101762.19;5057567;28;46182;-53
2022/05/01 06:14:35;;;;;;;;;24.50;22.00;;;;;9.90;56.73;101758.28;5057132;28;45509;-53
2022/05/01 06:17:00;;;;;;;;;23.00;23.00;;;;;10.01;56.93;101762.28;5057187;27;45409;-57
2022/05/01 06:19:26;;;;;;;;;24.00;18.75;;;;;10.05;56.20;101761.28;5017429;27;1118589;-54
2022/05/01 06:21:51;;;;;;;;;28.25;22.75;;;;;10.00;56.08;101754.38;5058847;28;46785;-56
2022/05/01 06:24:17;;;;;;;;;25.75;24.50;;;;;10.13;56.00;101754.78;5058215;28;45440;-55
2022/05/01 06:26:42;;;;;;;;;25.00;22.75;;;;;10.26;55.27;101750.81;5058474;27;45601;-53
2022/05/01 06:29:08;;;;;;;;;28.50;23.50;;;;;10.32;55.07;101746.16;5058506;28;45306;-54
2022/05/01 06:31:34;;;;;;;;;21.50;19.25;;;;;10.49;55.15;101756.16;5057869;28;45445;-61
2022/05/01 06:34:00;;;;;;;;;24.25;23.00;;;;;10.67;54.41;101767.03;5058425;27;45298;-58
2022/05/01 06:36:26;;;;;;;;;34.50;26.25;;;;;10.80;54.25;101757.66;5058374;28;45411;-57
2022/05/01 06:38:51;;;;;;;;;21.50;21.50;;;;;10.85;54.79;101745.06;5058803;28;45342;-59
2022/05/01 06:41:17;;;;;;;;;31.75;25.25;;;;;10.99;54.30;101753.38;5058056;27;45365;-57
2022/05/01 06:43:43;;;;;;;;;25.00;23.00;;;;;11.08;53.42;101757.47;5058136;27;45389;-54
2022/05/01 06:46:08;;;;;;;;;32.75;26.75;;;;;11.21;53.58;101766.72;5056830;28;45417;-55
2022/05/01 06:48:34;;;;;;;;;28.50;25.00;;;;;11.26;53.28;101766.50;5073819;27;45591;-53
2022/05/01 06:51:00;;;;;;;;;23.00;23.00;;;;;11.38;53.25;101772.22;5057806;28;45471;-56
2022/05/01 06:53:26;;;;;;;;;31.25;25.75;;;;;11.48;53.52;101773.56;5058044;28;45382;-57
2022/05/01 06:55:53;;;;;;;;;30.00;27.00;;;;;11.39;53.16;101751.75;5056741;27;45521;-56
2022/05/01 06:58:19;;;;;;;;;32.00;29.00;;;;;11.56;53.38;101770.56;5057077;28;45623;-56
2022/05/01 07:00:45;;;;;;;;;30.50;28.00;;;;;11.70;52.71;101776.19;5056814;27;46127;-55
2022/05/01 07:03:11;;;;;;;;;25.75;25.50;;;;;11.81;53.23;101773.13;5057348;28;46371;-55
2022/05/01 07:05:36;;;;;;;;;29.00;26.25;;;;;11.69;52.46;101745.16;5073422;27;45346;-60
2022/05/01 07:08:01;;;;;;;;;38.00;32.50;;;;;11.88;51.93;101755.94;5057791;28;45605;-59
2022/05/01 07:10:27;;;;;;;;;35.00;29.00;;;;;11.94;52.44;101766.31;5057280;28;45408;-55
2022/05/01 07:12:52;;;;;;;;;28.75;27.25;;;;;11.95;52.46;101764.53;5058006;28;45400;-57
2022/05/01 07:15:18;;;;;;;;;36.00;28.00;;;;;11.98;51.89;101764.38;5056440;28;45359;-59
2022/05/01 07:17:44;;;;;;;;;33.50;27.25;;;;;12.06;52.07;101773.81;5057744;28;45588;-62
2022/05/01 07:20:10;;;;;;;;;29.50;28.25;;;;;12.02;52.38;101752.69;5072779;28;47216;-60
2022/05/01 07:22:35;;;;;;;;;28.00;26.00;;;;;12.04;52.02;101746.34;5057299;28;45404;-59
2022/05/01 07:25:01;;;;;;;;;21.75;19.25;;;;;12.02;52.15;101756.22;5057483;27;45440;-55
2022/05/01 07:27:27;;;;;;;;;33.00;32.25;;;;;12.02;52.08;101758.00;5056836;28;45359;-56
2022/05/01 07:29:52;;;;;;;;;27.00;24.00;;;;;12.06;52.21;101755.13;5057680;28;46142;-60
2022/05/01 07:32:17;;;;;;;;;25.50;25.50;;;;;12.10;52.53;101756.72;5057299;28;45280;-61
2022/05/01 07:34:43;;;;;;;;;26.00;25.50;;;;;12.07;51.84;101766.66;5055399;28;45215;-57
2022/05/01 07:37:08;;;;;;;;;29.50;28.25;;;;;12.11;51.63;101762.97;5057052;28;45637;-60
2022/05/01 07:39:34;;;;;;;;;28.75;26.25;;;;;12.16;51.75;101768.94;5056996;28;45370;-54
2022/05/01 07:41:59;;;;;;;;;31.25;29.00;;;;;12.23;51.40;101765.06;5056610;27;45387;-58
2022/05/01 07:44:25;;;;;;;;;30.00;28.00;;;;;12.29;51.47;101761.25;5055252;28;45381;-62
2022/05/01 07:46:51;;;;;;;;;29.75;26.00;;;;;12.38;50.99;101767.06;5057122;28;45270;-60
2022/05/01 07:49:18;;;;;;;;;24.00;23.75;;;;;12.48;51.07;101759.47;5056668;28;45426;-60
2022/05/01 07:51:43;;;;;;;;;24.25;24.25;;;;;12.50;51.02;101744.31;5069131;28;45390;-62
2022/05/01 07:54:09;;;;;;;;;27.00;25.75;;;;;12.53;50.27;101737.94;5056662;28;45372;-60
2022/05/01 07:56:34;;;;;;;;;26.50;24.25;;;;;12.60;50.59;101742.06;5056789;28;45330;-61
2022/05/01 07:59:01;;;;;;;;;30.25;28.25;;;;;12.74;50.42;101752.94;5057041;28;45510;-61
2022/05/01 08:01:27;;;;;;;;;33.25;27.50;;;;;12.81;50.38;101745.53;5057342;28;45311;-60
2022/05/01 08:06:36;;;;;;;;;25.25;22.75;;;;;12.89;49.31;101741.56;5055851;28;45335;-57
2022/05/01 08:09:03;;;;;;;;;31.25;24.75;;;;;12.92;48.77;101741.44;5056309;27;46109;-58
2022/05/01 08:11:28;;;;;;;;;30.75;24.00;;;;;12.81;49.27;101722.38;5057175;28;45359;-54
2022/05/01 08:13:54;;;;;;;;;24.00;24.00;;;;;12.88;48.92;101728.28;5072468;27;45275;-57
2022/05/01 08:16:20;;;;;;;;;23.00;17.75;;;;;12.78;48.78;101729.66;5056794;28;45322;-55
2022/05/01 08:21:32;;;;;;;;;35.25;24.50;;;;;12.93;49.09;101729.81;5056069;28;45393;-58
2022/05/01 08:23:58;;;;;;;;;29.00;24.75;;;;;13.00;48.79;101720.53;5056199;28;45553;-56
2022/05/01 08:26:24;;;;;;;;;20.00;20.00;;;;;13.22;48.39;101731.09;5056607;27;45311;-60
2022/05/01 08:28:54;;;;;;;;;30.25;25.25;;;;;13.47;47.19;101719.19;5056158;28;46405;-61
2022/05/01 08:31:21;;;;;;;;;20.25;17.00;;;;;13.82;46.50;101728.09;5055002;27;45338;-59
2022/05/01 08:33:46;;;;;;;;;25.25;23.25;;;;;14.10;45.42;101720.38;5038447;27;45271;-58
2022/05/01 08:36:12;;;;;;;;;28.25;24.25;;;;;14.39;44.54;101720.63;5056518;28;45657;-55
2022/05/01 08:38:38;;;;;;;;;24.50;22.00;;;;;14.59;44.07;101708.88;5056273;27;46031;-61
2022/05/01 08:41:05;;;;;;;;;20.75;20.00;;;;;14.86;43.60;101704.66;5056219;28;45404;-57
2022/05/01 08:43:31;;;;;;;;;27.50;24.75;;;;;15.07;43.04;101686.47;5056978;28;45371;-56
2022/05/01 08:46:16;;;;;;;;;22.00;18.00;;;;;15.19;42.06;101707.22;5055679;28;45645;-51
2022/05/01 08:49:09;;;;;;;;;18.25;18.00;;;;;15.47;42.90;101700.25;5055820;28;45397;-64
2022/05/01 08:51:37;;;;;;;;;23.00;23.00;;;;;15.75;42.02;101705.72;5069284;27;45464;-60
2022/05/01 08:54:05;;;;;;;;;22.67;21.00;;;;;15.79;41.74;101709.97;5071309;27;45260;-59
2022/05/01 08:56:33;;;;;;;;;23.50;23.50;;;;;15.90;42.21;101683.34;5056487;28;45596;-61
2022/05/01 08:59:00;;;;;;;;;27.50;26.75;;;;;16.27;41.14;101702.53;5071209;27;45456;-60
2022/05/01 09:01:29;;;;;;;;;33.00;22.00;;;;;16.51;40.67;101692.94;5055132;28;45431;-61
2022/05/01 09:03:54;;;;;;;;;19.33;19.33;;;;;16.66;39.04;101691.09;5054903;28;45235;-55
2022/05/01 09:06:20;;;;;;;;;26.00;23.33;;;;;16.84;39.05;101686.41;5056200;28;45232;-60
2022/05/01 09:08:46;;;;;;;;;18.67;18.67;;;;;16.93;38.83;101669.69;5055635;28;46001;-58
2022/05/01 09:13:56;;;;;;;;;21.33;21.33;;;;;17.33;37.77;101691.25;5055594;28;45224;-57
2022/05/01 09:16:21;;;;;;;;;24.00;22.33;;;;;17.43;38.25;101686.97;5054511;28;45396;-56
2022/05/01 09:18:47;;;;;;;;;24.00;19.67;;;;;17.62;38.33;101682.06;5055736;28;46263;-59
2022/05/01 09:21:13;;;;;;;;;22.00;19.33;;;;;17.76;37.04;101681.16;5055663;28;45994;-61
2022/05/01 09:23:44;;;;;;;;;17.00;17.00;;;;;18.06;36.72;101672.78;5055778;28;45675;-56
2022/05/01 09:26:16;;;;;;;;;19.67;19.67;;;;;18.27;36.05;101683.88;5055351;28;45585;-55
2022/05/01 09:28:53;;;;;;;;;21.67;20.00;;;;;18.29;35.79;101676.53;5055141;28;46483;-52
2022/05/01 09:31:48;;;;;;;;;20.00;18.67;;;;;18.26;35.65;101677.63;5055421;28;45242;-59
2022/05/01 09:34:28;;;;;;;;;22.67;20.00;;;;;18.58;35.87;101675.28;5055381;28;45244;-58
2022/05/01 09:36:55;;;;;;;;;20.67;20.67;;;;;18.89;34.63;101664.16;5071540;27;45374;-58
2022/05/01 09:39:25;;;;;;;;;25.67;20.33;;;;;18.96;33.61;101654.63;5055035;28;46224;-58
2022/05/01 09:41:53;;;;;;;;;22.33;18.67;;;;;19.07;33.74;101662.78;5055090;27;45279;-58
2022/05/01 09:44:20;;;;;;;;;19.67;19.67;;;;;19.07;32.59;101654.69;5055686;28;45953;-63
2022/05/01 09:46:48;;;;;;;;;26.33;21.33;;;;;19.06;32.84;101661.91;5070621;28;45576;-59
2022/05/01 09:49:16;;;;;;;;;22.00;19.67;;;;;18.60;33.28;101660.84;5055027;28;45492;-56
2022/05/01 09:51:46;;;;;;;;;24.67;21.33;;;;;18.60;34.04;101648.22;5055056;28;45290;-54
2022/05/01 09:54:31;;;;;;;;;17.00;16.00;;;;;18.94;33.65;101645.78;5053787;28;45423;-54
2022/05/01 09:56:59;;;;;;;;;19.33;16.67;;;;;19.28;34.09;101645.00;5054520;28;45602;-56
2022/05/01 09:59:26;;;;;;;;;20.33;18.67;;;;;19.56;33.53;101653.69;5070310;28;48078;-58
2022/05/01 10:02:01;;;;;;;;;21.67;20.00;;;;;19.63;32.23;101654.94;5055292;28;45270;-56
2022/05/01 10:04:28;;;;;;;;;19.00;16.67;;;;;19.71;32.84;101649.81;5055565;28;45574;-60
2022/05/01 10:06:55;;;;;;;;;18.67;17.00;;;;;19.58;32.30;101643.66;5072669;28;45452;-57
2022/05/01 10:09:23;;;;;;;;;9.33;9.33;;;;;19.61;31.43;101638.84;5058593;28;46093;-57
2022/05/01 10:11:54;;;;;;;;;17.67;16.33;;;;;19.57;31.17;101644.63;5056996;28;45422;-57
2022/05/01 10:14:20;;;;;;;;;18.33;17.33;;;;;19.36;31.18;101634.47;5058570;27;45374;-59
2022/05/01 10:16:46;;;;;;;;;19.00;16.33;;;;;19.15;31.99;101631.56;5059013;28;45683;-59
2022/05/01 10:19:15;;;;;;;;;15.67;15.67;;;;;19.06;32.32;101640.34;5058134;28;45512;-59
2022/05/01 10:21:48;;;;;;;;;23.33;21.33;;;;;18.90;32.47;101638.91;5058014;28;45340;-64
2022/05/01 10:24:18;;;;;;;;;17.33;17.33;;;;;18.78;32.69;101625.38;5057590;28;45662;-60
2022/05/01 10:27:10;;;;;;;;;16.67;16.33;;;;;18.41;32.67;101637.09;5058649;28;45473;-58
2022/05/01 10:29:37;;;;;;;;;18.33;17.00;;;;;18.07;33.45;101631.41;5058481;28;46228;-55
2022/05/01 10:35:35;;;;;;;;;16.00;15.33;;;;;18.29;33.60;101619.97;5057575;28;45475;-56
2022/05/01 10:38:41;;;;;;;;;16.67;14.67;;;;;18.19;33.26;101617.09;5006832;28;45595;-56
2022/05/01 10:41:10;;;;;;;;;18.33;17.33;;;;;18.22;33.60;101621.38;5035668;28;45504;-59
2022/05/01 10:43:37;;;;;;;;;16.00;16.00;;;;;18.06;33.77;101610.00;5057116;28;45377;-60
2022/05/01 10:46:21;;;;;;;;;20.67;18.00;;;;;18.17;34.38;101607.41;5058291;27;45376;-54
2022/05/01 10:48:47;;;;;;;;;22.00;15.00;;;;;18.10;33.54;101598.91;5073324;28;45548;-61
2022/05/01 10:51:31;;;;;;;;;19.67;16.00;;;;;18.17;33.62;101600.19;5057712;28;46100;-55
2022/05/01 10:54:19;;;;;;;;;17.33;16.00;;;;;18.27;33.73;101598.56;5057817;28;45375;-60
2022/05/01 10:56:51;;;;;;;;;17.67;15.67;;;;;18.36;33.24;101593.44;5073520;27;45348;-58
2022/05/01 10:59:35;;;;;;;;;16.00;16.00;;;;;18.36;32.43;101596.16;5057486;28;45505;-59
2022/05/01 11:02:01;;;;;;;;;13.33;13.33;;;;;18.34;32.92;101588.19;5072848;27;45853;-59
2022/05/01 11:04:45;;;;;;;;;15.67;15.00;;;;;18.20;32.76;101575.72;5057571;28;45262;-60
2022/05/01 11:07:13;;;;;;;;;13.33;11.00;;;;;18.21;32.45;101571.19;5072706;28;45360;-56
2022/05/01 11:09:41;;;;;;;;;15.00;15.00;;;;;18.33;32.51;101574.84;5056689;28;45454;-54
2022/05/01 11:12:09;;;;;;;;;16.00;15.00;;;;;18.32;32.42;101563.19;5072899;28;45524;-54
2022/05/01 11:14:38;;;;;;;;;14.67;14.67;;;;;18.34;33.03;101571.16;5057702;28;45506;-57
2022/05/01 11:17:04;;;;;;;;;17.33;14.67;;;;;18.48;33.04;101560.22;5056457;28;45773;-60
2022/05/01 11:19:34;;;;;;;;;15.67;13.67;;;;;18.59;32.13;101565.69;5055483;28;45599;-59
2022/05/01 11:22:08;;;;;;;;;14.33;14.33;;;;;18.56;32.80;101557.84;5057169;27;45425;-58
2022/05/01 11:24:44;;;;;;;;;17.00;16.00;;;;;18.44;32.57;101562.31;5057705;28;45419;-60
2022/05/01 11:27:17;;;;;;;;;17.67;17.00;;;;;18.46;33.10;101560.34;5057708;28;45380;-58
2022/05/01 11:30:08;;;;;;;;;15.00;13.33;;;;;18.56;33.30;101555.16;5056318;28;45443;-59
2022/05/01 11:32:48;;;;;;;;;15.33;15.33;;;;;18.67;33.34;101554.38;5057410;28;45524;-62
2022/05/01 11:35:14;;;;;;;;;13.00;13.00;;;;;18.76;32.84;101551.88;5055553;28;45436;-57
2022/05/01 11:38:08;;;;;;;;;18.33;17.00;;;;;18.67;33.09;101535.53;5057497;28;45441;-54
2022/05/01 11:40:33;;;;;;;;;13.67;13.67;;;;;18.57;33.10;101546.94;5057413;28;45341;-61
2022/05/01 11:43:21;;;;;;;;;13.00;13.00;;;;;18.66;32.67;101542.75;5069816;28;47642;-53
2022/05/01 11:45:47;;;;;;;;;17.00;15.67;;;;;18.73;32.66;101538.59;5056897;27;45393;-57
2022/05/01 11:48:18;;;;;;;;;13.67;13.00;;;;;18.81;33.02;101538.91;5057223;27;45375;-56
2022/05/01 11:50:48;;;;;;;;;16.33;16.33;;;;;18.84;32.40;101544.06;5072739;28;45448;-60